Humidity-temperature Sensor

Selected Measurement Type: Relative Humidity

 
Relative Humidity [%]     6 entries per hour
Showing data from 6/7/2017 (00:00:00 Z) to 5/31/2017 (00:01:00 Z)
Previous Next [ Day | 3-Days | 7-Days ]
First Last
Prev [ Day | 3-Days | 7-Days ] Next
First Last

Start Time:     :
End Time:     :     
Time (in GMT) :00 :50 :40 :30 :20 :10
Previous Next [ Day | 3-Days | 7-Days ]
First Last
Prev [ Day | 3-Days | 7-Days ] Next
First Last


123 => good data
MM => data is determined as missing
-- => data not received/configured
Back to Top Back to Top
6/7/2017 00:00 to 23:10 -- -- -- -- -- --
6/6/2017 23:00 to 22:10 93.27 93.35 93.13 93.23 93.79 93.89
6/6/2017 22:00 to 21:10 94.34 94.16 94.30 94.04 94.08 94.38
6/6/2017 21:00 to 20:10 94.06 93.61 94.18 94.56 94.72 94.44
6/6/2017 20:00 to 19:10 94.40 94.48 94.72 94.38 94.54 94.48
6/6/2017 19:00 to 18:10 94.44 94.50 94.10 94.18 93.43 92.93
6/6/2017 18:00 to 17:10 93.35 93.49 93.45 93.69 93.43 93.71
6/6/2017 17:00 to 16:10 93.81 93.05 93.03 93.09 93.21 93.53
6/6/2017 16:00 to 15:10 93.89 93.77 93.77 93.87 94.06 93.94
6/6/2017 15:00 to 14:10 93.69 93.29 93.21 92.81 92.67 92.97
6/6/2017 14:00 to 13:10 93.33 93.39 93.71 94.30 94.30 93.85
6/6/2017 13:00 to 12:10 93.25 92.65 91.79 91.48 92.13 92.17
6/6/2017 12:00 to 11:10 93.05 92.61 92.85 92.29 92.33 92.63
6/6/2017 11:00 to 10:10 92.21 92.57 92.49 92.51 92.83 92.21
6/6/2017 10:00 to 9:10 91.91 92.51 93.25 93.37 93.55 93.23
6/6/2017 09:00 to 8:10 93.67 93.17 92.63 93.09 93.29 92.63
6/6/2017 08:00 to 7:10 92.77 92.07 92.49 92.31 92.69 92.37
6/6/2017 07:00 to 6:10 92.19 92.85 92.49 92.17 91.55 91.95
6/6/2017 06:00 to 5:10 92.15 92.29 91.85 92.25 91.93 91.91
6/6/2017 05:00 to 4:10 91.71 92.03 91.75 91.36 91.34 91.10
6/6/2017 04:00 to 3:10 91.40 91.38 90.92 91.73 91.73 91.71
6/6/2017 03:00 to 2:10 92.01 91.04 90.26 90.70 90.72 90.10
6/6/2017 02:00 to 1:10 89.30 90.80 90.38 90.22 89.80 89.96
6/6/2017 01:00 to 0:10 90.28 89.84 89.72 89.28 89.76 90.58
6/6/2017 00:00 to 23:10 91.02 90.20 89.58 89.68 89.76 89.72
6/5/2017 23:00 to 22:10 89.50 89.54 89.38 89.42 88.67 88.73
6/5/2017 22:00 to 21:10 88.77 88.31 88.77 88.89 89.82 89.56
6/5/2017 21:00 to 20:10 89.62 89.07 89.94 89.80 89.38 89.32
6/5/2017 20:00 to 19:10 89.68 89.88 90.12 89.30 89.44 89.58
6/5/2017 19:00 to 18:10 89.05 88.75 88.31 88.41 87.37 87.47
6/5/2017 18:00 to 17:10 88.33 88.27 88.39 87.73 87.79 87.69
6/5/2017 17:00 to 16:10 87.47 87.85 88.07 88.69 88.97 88.79
6/5/2017 16:00 to 15:10 88.59 87.89 87.91 89.12 88.53 89.34
6/5/2017 15:00 to 14:10 88.93 88.15 88.45 88.21 88.65 88.47
6/5/2017 14:00 to 13:10 89.96 89.90 88.71 88.03 88.91 89.01
6/5/2017 13:00 to 12:10 89.22 89.26 89.66 89.96 89.48 89.86
6/5/2017 12:00 to 11:10 89.66 90.28 90.88 91.28 90.20 90.82
6/5/2017 11:00 to 10:10 90.64 89.82 90.18 91.12 91.20 89.82
6/5/2017 10:00 to 9:10 89.92 88.79 89.58 90.22 89.76 90.30
6/5/2017 09:00 to 8:10 89.34 89.07 89.82 88.95 87.65 87.93
6/5/2017 08:00 to 7:10 88.49 89.50 89.54 88.49 89.48 88.61
6/5/2017 07:00 to 6:10 90.04 89.32 89.64 90.08 91.16 90.58
6/5/2017 06:00 to 5:10 90.36 90.10 90.24 89.72 90.88 91.08
6/5/2017 05:00 to 4:10 90.80 90.50 89.82 89.80 89.30 89.62
6/5/2017 04:00 to 3:10 90.02 89.92 91.16 91.04 90.92 89.80
6/5/2017 03:00 to 2:10 89.74 89.78 90.50 89.38 88.01 88.71
6/5/2017 02:00 to 1:10 89.03 88.77 88.83 88.73 88.79 88.39
6/5/2017 01:00 to 0:10 88.73 88.15 88.43 88.45 88.01 88.67
6/5/2017 00:00 to 23:10 88.29 89.10 88.69 88.49 88.33 87.05
6/4/2017 23:00 to 22:10 87.79 89.01 89.18 89.38 89.16 89.22
6/4/2017 22:00 to 21:10 88.91 88.91 88.71 88.65 87.63 88.37
6/4/2017 21:00 to 20:10 89.66 90.42 90.22 90.22 90.74 90.76
6/4/2017 20:00 to 19:10 90.30 89.94 89.36 88.45 89.14 89.50
6/4/2017 19:00 to 18:10 90.20 90.18 90.30 90.04 90.54 90.60
6/4/2017 18:00 to 17:10 90.36 90.62 90.90 90.72 90.02 89.78
6/4/2017 17:00 to 16:10 89.18 89.38 89.94 89.56 90.10 89.58
6/4/2017 16:00 to 15:10 89.88 89.92 89.60 89.82 90.82 91.10
6/4/2017 15:00 to 14:10 90.64 90.92 90.80 90.52 91.83 91.73
6/4/2017 14:00 to 13:10 91.48 90.50 90.34 91.16 89.94 89.74
6/4/2017 13:00 to 12:10 89.62 90.30 89.90 90.84 90.66 91.44
6/4/2017 12:00 to 11:10 90.84 90.24 90.74 90.12 90.16 90.44
6/4/2017 11:00 to 10:10 89.92 89.36 89.16 88.55 90.58 90.84
6/4/2017 10:00 to 9:10 90.44 91.02 91.26 90.96 90.72 90.70
6/4/2017 09:00 to 8:10 90.74 89.86 89.68 90.66 91.22 90.96
6/4/2017 08:00 to 7:10 91.02 90.24 90.00 90.30 89.56 90.48
6/4/2017 07:00 to 6:10 90.84 90.96 90.26 90.62 90.76 90.44
6/4/2017 06:00 to 5:10 90.34 89.70 90.34 89.64 89.01 89.32
6/4/2017 05:00 to 4:10 88.87 90.64 89.92 88.51 88.59 87.87
6/4/2017 04:00 to 3:10 87.93 87.61 87.91 88.91 89.20 89.98
6/4/2017 03:00 to 2:10 89.40 89.38 88.77 87.91 87.99 87.95
6/4/2017 02:00 to 1:10 87.93 88.37 87.65 86.60 86.20 85.42
6/4/2017 01:00 to 0:10 85.44 86.16 86.08 87.83 87.87 86.66
6/4/2017 00:00 to 23:10 87.53 88.69 90.12 90.00 89.10 88.85
6/3/2017 23:00 to 22:10 89.20 88.69 88.53 88.51 88.33 87.73
6/3/2017 22:00 to 21:10 87.15 88.45 88.13 89.20 89.42 89.14
6/3/2017 21:00 to 20:10 89.40 89.48 90.08 90.14 88.91 89.36
6/3/2017 20:00 to 19:10 89.60 89.05 89.56 89.44 89.76 88.95
6/3/2017 19:00 to 18:10 88.95 89.94 89.34 88.67 88.29 87.61
6/3/2017 18:00 to 17:10 87.87 88.75 87.07 86.75 86.73 87.09
6/3/2017 17:00 to 16:10 86.93 88.33 88.95 89.46 87.63 87.99
6/3/2017 16:00 to 15:10 88.39 88.41 88.17 87.53 87.43 86.66
6/3/2017 15:00 to 14:10 86.75 87.11 87.53 87.53 87.25 87.31
6/3/2017 14:00 to 13:10 86.50 87.19 86.02 86.54 87.53 86.87
6/3/2017 13:00 to 12:10 86.62 88.11 88.81 89.66 89.28 88.75
6/3/2017 12:00 to 11:10 87.63 87.07 86.40 86.69 84.23 85.12
6/3/2017 11:00 to 10:10 84.94 83.49 83.11 84.01 85.42 86.04
6/3/2017 10:00 to 9:10 84.68 88.17 88.59 89.94 89.24 88.07
6/3/2017 09:00 to 8:10 89.62 90.34 90.04 88.87 88.37 88.99
6/3/2017 08:00 to 7:10 90.12 90.74 92.07 91.89 91.40 90.76
6/3/2017 07:00 to 6:10 90.58 90.24 88.97 88.21 89.70 88.13
6/3/2017 06:00 to 5:10 89.90 88.83 88.11 87.89 87.95 87.83
6/3/2017 05:00 to 4:10 87.29 86.81 87.01 86.77 87.37 86.83
6/3/2017 04:00 to 3:10 87.19 85.60 86.58 86.18 86.50 86.77
6/3/2017 03:00 to 2:10 86.85 86.44 87.55 86.58 86.62 86.26
6/3/2017 02:00 to 1:10 85.10 84.70 85.24 86.14 85.38 84.66
6/3/2017 01:00 to 0:10 84.44 84.64 84.82 83.83 84.13 84.34
6/3/2017 00:00 to 23:10 84.66 85.00 84.28 84.40 84.84 86.20
6/2/2017 23:00 to 22:10 85.82 86.30 85.14 83.83 83.55 85.60
6/2/2017 22:00 to 21:10 86.38 85.96 85.54 84.19 84.68 84.11
6/2/2017 21:00 to 20:10 83.37 83.51 82.01 82.65 83.75 84.07
6/2/2017 20:00 to 19:10 85.12 84.62 83.71 83.63 83.97 84.92
6/2/2017 19:00 to 18:10 83.87 83.89 83.27 83.69 84.74 84.72
6/2/2017 18:00 to 17:10 85.18 85.12 83.43 81.70 83.57 81.78
6/2/2017 17:00 to 16:10 82.03 83.67 82.97 82.65 81.46 82.89
6/2/2017 16:00 to 15:10 82.03 81.95 81.28 81.06 81.04 80.62
6/2/2017 15:00 to 14:10 81.91 81.89 81.89 81.93 81.76 82.65
6/2/2017 14:00 to 13:10 82.97 82.95 82.41 81.36 81.52 81.54
6/2/2017 13:00 to 12:10 83.07 81.52 81.99 82.51 80.90 83.87
6/2/2017 12:00 to 11:10 81.08 81.42 82.33 82.43 83.05 82.11
6/2/2017 11:00 to 10:10 82.57 83.17 83.83 82.61 82.81 82.45
6/2/2017 10:00 to 9:10 83.07 82.05 81.91 83.57 83.69 82.73
6/2/2017 09:00 to 8:10 83.39 82.15 83.53 82.63 83.09 82.67
6/2/2017 08:00 to 7:10 81.62 82.35 82.47 82.69 82.53 81.12
6/2/2017 07:00 to 6:10 81.38 82.53 81.76 81.66 82.07 82.01
6/2/2017 06:00 to 5:10 81.89 83.21 83.57 82.53 82.43 82.37
6/2/2017 05:00 to 4:10 82.25 81.93 80.78 82.43 82.91 82.63
6/2/2017 04:00 to 3:10 82.97 82.71 83.39 81.58 81.62 82.25
6/2/2017 03:00 to 2:10 82.65 80.06 79.37 81.42 81.74 80.30
6/2/2017 02:00 to 1:10 82.07 81.04 81.38 81.20 81.52 79.37
6/2/2017 01:00 to 0:10 79.78 80.60 80.34 80.04 81.18 81.97
6/2/2017 00:00 to 23:10 81.06 81.62 81.54 80.94 81.10 81.28
6/1/2017 23:00 to 22:10 81.28 81.66 81.40 82.09 81.00 81.44
6/1/2017 22:00 to 21:10 80.60 81.38 81.89 81.56 82.53 81.99
6/1/2017 21:00 to 20:10 82.07 81.26 82.33 81.42 81.02 79.56
6/1/2017 20:00 to 19:10 78.65 79.58 79.90 79.21 79.66 79.33
6/1/2017 19:00 to 18:10 79.70 80.28 80.50 78.25 78.51 79.74
6/1/2017 18:00 to 17:10 77.47 76.86 77.83 78.81 79.46 78.65
6/1/2017 17:00 to 16:10 76.52 78.19 80.26 78.11 78.77 77.85
6/1/2017 16:00 to 15:10 -- -- -- -- -- --
6/1/2017 15:00 to 14:10 77.47 78.57 78.81 78.19 79.42 80.20
6/1/2017 14:00 to 13:10 79.58 78.37 79.05 81.08 80.36 81.32
6/1/2017 13:00 to 12:10 83.53 81.64 80.06 80.58 80.86 83.35
6/1/2017 12:00 to 11:10 84.21 83.33 82.83 82.27 84.15 83.11
6/1/2017 11:00 to 10:10 83.55 83.83 84.50 83.09 83.97 84.40
6/1/2017 10:00 to 9:10 84.03 85.94 85.56 85.18 85.08 84.74
6/1/2017 09:00 to 8:10 85.64 85.88 85.64 85.98 85.18 86.30
6/1/2017 08:00 to 7:10 85.02 85.64 85.18 85.80 84.92 85.58
6/1/2017 07:00 to 6:10 85.64 85.50 84.68 84.62 83.95 83.53
6/1/2017 06:00 to 5:10 83.87 84.28 84.72 83.65 82.91 84.30
6/1/2017 05:00 to 4:10 83.95 84.44 83.45 83.33 83.89 83.49
6/1/2017 04:00 to 3:10 83.77 83.57 83.89 83.51 83.25 83.91
6/1/2017 03:00 to 2:10 82.29 81.56 82.85 82.45 83.49 82.21
6/1/2017 02:00 to 1:10 82.91 83.79 83.99 81.66 82.25 81.85
6/1/2017 01:00 to 0:10 79.96 79.88 80.88 81.16 81.34 80.34
6/1/2017 00:00 to 23:10 78.87 79.52 78.03 78.65 78.19 78.03
5/31/2017 23:00 to 22:10 77.23 77.25 75.98 79.94 81.62 82.09
5/31/2017 22:00 to 21:10 79.72 79.33 78.91 78.57 79.62 80.44
5/31/2017 21:00 to 20:10 80.30 79.68 79.21 80.74 80.02 79.23
5/31/2017 20:00 to 19:10 78.77 79.37 79.27 80.28 81.89 79.94
5/31/2017 19:00 to 18:10 80.32 81.24 81.32 82.13 83.27 82.31
5/31/2017 18:00 to 17:10 81.82 81.56 81.02 81.80 82.05 80.84
5/31/2017 17:00 to 16:10 81.34 82.25 83.27 82.41 82.55 82.29
5/31/2017 16:00 to 15:10 80.96 81.46 81.60 82.69 83.81 83.15
5/31/2017 15:00 to 14:10 81.64 81.48 81.93 80.84 81.93 81.38
5/31/2017 14:00 to 13:10 84.11 83.07 82.97 81.48 82.89 82.09
5/31/2017 13:00 to 12:10 82.49 81.08 81.82 81.60 82.31 82.29
5/31/2017 12:00 to 11:10 82.11 82.83 82.57 82.77 82.39 81.85
5/31/2017 11:00 to 10:10 83.73 83.59 83.35 81.40 84.07 82.79
5/31/2017 10:00 to 9:10 83.87 83.41 83.99 85.10 84.88 84.11
5/31/2017 09:00 to 8:10 82.93 84.21 84.94 85.70 85.38 85.70
5/31/2017 08:00 to 7:10 85.08 85.46 85.72 85.50 85.28 84.94
5/31/2017 07:00 to 6:10 -- -- -- -- -- --
5/31/2017 06:00 to 5:10 -- -- -- -- -- --
5/31/2017 05:00 to 4:10 -- -- -- -- -- --
5/31/2017 04:00 to 3:10 -- -- -- -- -- --
5/31/2017 03:00 to 2:10 -- -- -- -- -- --
5/31/2017 02:00 to 1:10 -- -- -- -- -- --
5/31/2017 01:00 to 0:10 -- -- -- -- -- --